Terminal Aerodrome Forecast
Issued by NWS Cleveland, OH

Home | Current Version | Previous Version | Graphics & Text | Print | Product List | Glossary On
Versions: 1 2 3 4 5 6 7 8 9 10 11 12 13 14 15 16 17 18 19 20 21 22 23 24
000
FTUS41 KCLE 152046 AAD
TAFCLE
TAF AMD
KCLE 152046Z 1521/1624 27020G35KT P6SM SCT015 OVC025
      TEMPO 1521/1601 SCT025 BKN050
     FM160200 31016G30KT P6SM BKN015
     FM160800 32011G19KT P6SM SCT015 BKN025
     FM162200 30007KT P6SM SCT025=

USA.gov is the U.S. government's official web portal to all federal, state and local government web resources and services.